sensor_id;sensor_type;location;lat;lon;timestamp;P1;durP1;ratioP1;P2;durP2;ratioP2
73508;SDS011;61750;55.036;73.312;2022-11-12T00:01:42;3.40;;;1.60;;
73508;SDS011;61750;55.036;73.312;2022-11-12T00:08:55;3.83;;;1.63;;
73508;SDS011;61750;55.036;73.312;2022-11-12T00:11:44;4.53;;;2.10;;
73508;SDS011;61750;55.036;73.312;2022-11-12T00:14:39;4.50;;;1.60;;
73508;SDS011;61750;55.036;73.312;2022-11-12T00:17:34;4.65;;;1.90;;
73508;SDS011;61750;55.036;73.312;2022-11-12T00:20:18;5.90;;;2.10;;
73508;SDS011;61750;55.036;73.312;2022-11-12T00:23:13;4.15;;;1.70;;
73508;SDS011;61750;55.036;73.312;2022-11-12T00:28:58;4.82;;;2.25;;
73508;SDS011;61750;55.036;73.312;2022-11-12T00:31:52;4.65;;;1.98;;
73508;SDS011;61750;55.036;73.312;2022-11-12T00:39:19;6.10;;;2.17;;
73508;SDS011;61750;55.036;73.312;2022-11-12T00:42:09;4.55;;;2.10;;
73508;SDS011;61750;55.036;73.312;2022-11-12T00:45:04;4.82;;;2.00;;
73508;SDS011;61750;55.036;73.312;2022-11-12T00:47:54;5.43;;;2.83;;
73508;SDS011;61750;55.036;73.312;2022-11-12T00:50:46;5.58;;;2.58;;
73508;SDS011;61750;55.036;73.312;2022-11-12T00:53:35;10.43;;;2.95;;
73508;SDS011;61750;55.036;73.312;2022-11-12T00:56:30;7.23;;;3.97;;
73508;SDS011;61750;55.036;73.312;2022-11-12T00:59:15;8.35;;;4.43;;
73508;SDS011;61750;55.036;73.312;2022-11-12T01:02:00;7.60;;;3.45;;
73508;SDS011;61750;55.036;73.312;2022-11-12T01:04:44;9.15;;;3.05;;
73508;SDS011;61750;55.036;73.312;2022-11-12T01:07:29;8.07;;;3.70;;
73508;SDS011;61750;55.036;73.312;2022-11-12T01:10:14;9.95;;;4.10;;
73508;SDS011;61750;55.036;73.312;2022-11-12T01:12:58;8.38;;;3.40;;
73508;SDS011;61750;55.036;73.312;2022-11-12T01:16:15;10.65;;;3.60;;
73508;SDS011;61750;55.036;73.312;2022-11-12T01:19:03;7.13;;;3.58;;
73508;SDS011;61750;55.036;73.312;2022-11-12T01:21:55;9.43;;;3.30;;
73508;SDS011;61750;55.036;73.312;2022-11-12T01:29:21;11.63;;;5.35;;
73508;SDS011;61750;55.036;73.312;2022-11-12T01:32:16;9.10;;;4.18;;
73508;SDS011;61750;55.036;73.312;2022-11-12T01:35:10;11.15;;;4.90;;
73508;SDS011;61750;55.036;73.312;2022-11-12T01:38:05;10.90;;;4.50;;
73508;SDS011;61750;55.036;73.312;2022-11-12T01:44:07;12.98;;;5.68;;
73508;SDS011;61750;55.036;73.312;2022-11-12T01:57:16;13.20;;;5.53;;
73508;SDS011;61750;55.036;73.312;2022-11-12T02:00:13;12.48;;;4.80;;
73508;SDS011;61750;55.036;73.312;2022-11-12T02:03:11;13.98;;;7.18;;
73508;SDS011;61750;55.036;73.312;2022-11-12T02:08:58;19.38;;;6.45;;
73508;SDS011;61750;55.036;73.312;2022-11-12T02:11:49;15.60;;;5.40;;
73508;SDS011;61750;55.036;73.312;2022-11-12T02:19:03;19.00;;;8.55;;
73508;SDS011;61750;55.036;73.312;2022-11-12T02:29:16;12.80;;;5.20;;
73508;SDS011;61750;55.036;73.312;2022-11-12T02:32:11;16.20;;;6.57;;
73508;SDS011;61750;55.036;73.312;2022-11-12T02:42:26;36.83;;;15.43;;
73508;SDS011;61750;55.036;73.312;2022-11-12T02:45:10;14.27;;;6.05;;
73508;SDS011;61750;55.036;73.312;2022-11-12T02:47:55;15.82;;;7.00;;
73508;SDS011;61750;55.036;73.312;2022-11-12T02:50:46;17.85;;;7.57;;
73508;SDS011;61750;55.036;73.312;2022-11-12T02:53:36;23.02;;;7.78;;
73508;SDS011;61750;55.036;73.312;2022-11-12T02:56:31;16.95;;;6.00;;
73508;SDS011;61750;55.036;73.312;2022-11-12T02:59:20;14.90;;;7.13;;
73508;SDS011;61750;55.036;73.312;2022-11-12T03:02:15;21.20;;;10.00;;
73508;SDS011;61750;55.036;73.312;2022-11-12T03:09:40;14.48;;;6.75;;
73508;SDS011;61750;55.036;73.312;2022-11-12T03:12:29;12.07;;;6.40;;
73508;SDS011;61750;55.036;73.312;2022-11-12T03:15:25;17.40;;;7.88;;
73508;SDS011;61750;55.036;73.312;2022-11-12T03:18:10;14.52;;;6.72;;
73508;SDS011;61750;55.036;73.312;2022-11-12T03:20:55;11.70;;;5.68;;
73508;SDS011;61750;55.036;73.312;2022-11-12T03:23:41;11.13;;;5.93;;
73508;SDS011;61750;55.036;73.312;2022-11-12T03:26:35;16.38;;;7.05;;
73508;SDS011;61750;55.036;73.312;2022-11-12T03:29:20;24.35;;;13.32;;
73508;SDS011;61750;55.036;73.312;2022-11-12T03:32:04;15.13;;;8.68;;
73508;SDS011;61750;55.036;73.312;2022-11-12T03:34:50;17.85;;;8.10;;
73508;SDS011;61750;55.036;73.312;2022-11-12T03:37:44;15.43;;;8.70;;
73508;SDS011;61750;55.036;73.312;2022-11-12T03:40:30;16.02;;;7.38;;
73508;SDS011;61750;55.036;73.312;2022-11-12T03:43:20;16.55;;;8.43;;
73508;SDS011;61750;55.036;73.312;2022-11-12T03:48:58;27.45;;;15.43;;
73508;SDS011;61750;55.036;73.312;2022-11-12T03:51:42;27.30;;;12.98;;
73508;SDS011;61750;55.036;73.312;2022-11-12T03:54:27;26.38;;;11.70;;
73508;SDS011;61750;55.036;73.312;2022-11-12T03:57:12;21.50;;;10.20;;
73508;SDS011;61750;55.036;73.312;2022-11-12T03:59:56;19.38;;;9.70;;
73508;SDS011;61750;55.036;73.312;2022-11-12T04:02:41;19.40;;;9.40;;
73508;SDS011;61750;55.036;73.312;2022-11-12T04:05:26;24.27;;;10.75;;
73508;SDS011;61750;55.036;73.312;2022-11-12T04:08:29;25.58;;;12.13;;
73508;SDS011;61750;55.036;73.312;2022-11-12T04:11:20;15.77;;;7.93;;
73508;SDS011;61750;55.036;73.312;2022-11-12T04:18:54;23.48;;;10.43;;
73508;SDS011;61750;55.036;73.312;2022-11-12T04:22:05;25.80;;;11.18;;
73508;SDS011;61750;55.036;73.312;2022-11-12T04:29:13;26.92;;;12.52;;
73508;SDS011;61750;55.036;73.312;2022-11-12T04:32:34;32.63;;;14.98;;
73508;SDS011;61750;55.036;73.312;2022-11-12T04:35:24;36.13;;;15.18;;
73508;SDS011;61750;55.036;73.312;2022-11-12T04:38:14;39.08;;;16.38;;
73508;SDS011;61750;55.036;73.312;2022-11-12T04:44:16;34.60;;;15.10;;
73508;SDS011;61750;55.036;73.312;2022-11-12T04:47:19;43.58;;;16.48;;
73508;SDS011;61750;55.036;73.312;2022-11-12T04:50:13;46.90;;;17.10;;
73508;SDS011;61750;55.036;73.312;2022-11-12T04:53:00;43.80;;;15.95;;
73508;SDS011;61750;55.036;73.312;2022-11-12T04:56:13;36.30;;;14.93;;
73508;SDS011;61750;55.036;73.312;2022-11-12T04:58:58;46.00;;;18.00;;
73508;SDS011;61750;55.036;73.312;2022-11-12T05:01:45;50.28;;;18.25;;
73508;SDS011;61750;55.036;73.312;2022-11-12T05:04:29;59.17;;;22.80;;
73508;SDS011;61750;55.036;73.312;2022-11-12T05:07:14;60.30;;;25.85;;
73508;SDS011;61750;55.036;73.312;2022-11-12T05:09:59;52.83;;;20.42;;
73508;SDS011;61750;55.036;73.312;2022-11-12T05:12:53;53.97;;;20.83;;
73508;SDS011;61750;55.036;73.312;2022-11-12T05:16:13;51.20;;;21.45;;
73508;SDS011;61750;55.036;73.312;2022-11-12T05:18:58;54.00;;;21.98;;
73508;SDS011;61750;55.036;73.312;2022-11-12T05:21:42;59.15;;;23.25;;
73508;SDS011;61750;55.036;73.312;2022-11-12T05:28:53;55.42;;;18.73;;
73508;SDS011;61750;55.036;73.312;2022-11-12T05:31:37;56.78;;;20.63;;
73508;SDS011;61750;55.036;73.312;2022-11-12T05:34:22;55.15;;;20.88;;
73508;SDS011;61750;55.036;73.312;2022-11-12T05:37:07;45.53;;;17.52;;
73508;SDS011;61750;55.036;73.312;2022-11-12T05:39:53;51.15;;;18.98;;
73508;SDS011;61750;55.036;73.312;2022-11-12T05:42:38;50.63;;;20.52;;
73508;SDS011;61750;55.036;73.312;2022-11-12T05:49:44;53.65;;;20.98;;
73508;SDS011;61750;55.036;73.312;2022-11-12T05:52:29;50.90;;;19.95;;
73508;SDS011;61750;55.036;73.312;2022-11-12T05:55:13;53.85;;;20.75;;
73508;SDS011;61750;55.036;73.312;2022-11-12T05:57:58;59.38;;;23.38;;
73508;SDS011;61750;55.036;73.312;2022-11-12T06:01:13;48.72;;;17.55;;
73508;SDS011;61750;55.036;73.312;2022-11-12T06:04:02;59.80;;;23.90;;
73508;SDS011;61750;55.036;73.312;2022-11-12T06:06:47;48.15;;;20.13;;
73508;SDS011;61750;55.036;73.312;2022-11-12T06:09:32;44.70;;;17.15;;
73508;SDS011;61750;55.036;73.312;2022-11-12T06:12:16;52.00;;;21.92;;
73508;SDS011;61750;55.036;73.312;2022-11-12T06:15:01;50.05;;;19.90;;
73508;SDS011;61750;55.036;73.312;2022-11-12T06:17:46;51.63;;;20.92;;
73508;SDS011;61750;55.036;73.312;2022-11-12T06:20:30;45.80;;;18.10;;
73508;SDS011;61750;55.036;73.312;2022-11-12T06:27:47;40.50;;;19.02;;
73508;SDS011;61750;55.036;73.312;2022-11-12T06:30:31;37.30;;;13.82;;
73508;SDS011;61750;55.036;73.312;2022-11-12T06:33:25;47.38;;;19.95;;
73508;SDS011;61750;55.036;73.312;2022-11-12T06:36:16;19.75;;;10.45;;
73508;SDS011;61750;55.036;73.312;2022-11-12T06:39:03;34.17;;;13.40;;
73508;SDS011;61750;55.036;73.312;2022-11-12T06:41:58;29.05;;;11.13;;
73508;SDS011;61750;55.036;73.312;2022-11-12T06:49:26;40.70;;;16.75;;
73508;SDS011;61750;55.036;73.312;2022-11-12T06:52:11;56.88;;;26.67;;
73508;SDS011;61750;55.036;73.312;2022-11-12T06:59:16;73.00;;;32.40;;
73508;SDS011;61750;55.036;73.312;2022-11-12T07:02:01;71.00;;;28.23;;
73508;SDS011;61750;55.036;73.312;2022-11-12T07:09:36;77.50;;;33.50;;
73508;SDS011;61750;55.036;73.312;2022-11-12T07:12:21;63.83;;;28.15;;
73508;SDS011;61750;55.036;73.312;2022-11-12T07:15:06;52.55;;;22.02;;
73508;SDS011;61750;55.036;73.312;2022-11-12T07:17:56;64.85;;;28.00;;
73508;SDS011;61750;55.036;73.312;2022-11-12T07:20:46;52.72;;;24.48;;
73508;SDS011;61750;55.036;73.312;2022-11-12T07:23:32;43.53;;;18.25;;
73508;SDS011;61750;55.036;73.312;2022-11-12T07:26:23;29.65;;;15.23;;
73508;SDS011;61750;55.036;73.312;2022-11-12T07:29:10;41.38;;;17.30;;
73508;SDS011;61750;55.036;73.312;2022-11-12T07:31:55;43.42;;;17.55;;
73508;SDS011;61750;55.036;73.312;2022-11-12T07:39:11;42.25;;;16.50;;
73508;SDS011;61750;55.036;73.312;2022-11-12T07:41:56;45.78;;;16.27;;
73508;SDS011;61750;55.036;73.312;2022-11-12T07:44:50;49.90;;;20.15;;
73508;SDS011;61750;55.036;73.312;2022-11-12T07:47:46;48.45;;;18.08;;
73508;SDS011;61750;55.036;73.312;2022-11-12T07:50:31;58.38;;;24.42;;
73508;SDS011;61750;55.036;73.312;2022-11-12T07:53:15;59.97;;;20.90;;
73508;SDS011;61750;55.036;73.312;2022-11-12T07:59:03;50.90;;;17.42;;
73508;SDS011;61750;55.036;73.312;2022-11-12T08:01:48;52.33;;;18.17;;
73508;SDS011;61750;55.036;73.312;2022-11-12T08:04:33;46.50;;;18.00;;
73508;SDS011;61750;55.036;73.312;2022-11-12T08:07:18;68.57;;;25.58;;
73508;SDS011;61750;55.036;73.312;2022-11-12T08:10:03;51.83;;;17.20;;
73508;SDS011;61750;55.036;73.312;2022-11-12T08:12:48;56.15;;;22.13;;
73508;SDS011;61750;55.036;73.312;2022-11-12T08:16:13;43.30;;;14.80;;
73508;SDS011;61750;55.036;73.312;2022-11-12T08:18:58;60.42;;;20.65;;
73508;SDS011;61750;55.036;73.312;2022-11-12T08:21:44;63.77;;;21.87;;
73508;SDS011;61750;55.036;73.312;2022-11-12T08:28:56;79.03;;;27.25;;
73508;SDS011;61750;55.036;73.312;2022-11-12T08:31:41;86.78;;;30.75;;
73508;SDS011;61750;55.036;73.312;2022-11-12T08:34:31;83.85;;;30.40;;
73508;SDS011;61750;55.036;73.312;2022-11-12T08:37:16;75.28;;;24.63;;
73508;SDS011;61750;55.036;73.312;2022-11-12T08:40:11;88.68;;;29.92;;
73508;SDS011;61750;55.036;73.312;2022-11-12T08:43:03;84.13;;;29.35;;
73508;SDS011;61750;55.036;73.312;2022-11-12T08:49:02;90.72;;;29.75;;
73508;SDS011;61750;55.036;73.312;2022-11-12T08:51:47;78.95;;;25.45;;
73508;SDS011;61750;55.036;73.312;2022-11-12T08:59:02;100.15;;;27.80;;
73508;SDS011;61750;55.036;73.312;2022-11-12T09:01:56;81.28;;;23.08;;
73508;SDS011;61750;55.036;73.312;2022-11-12T09:04:40;76.47;;;21.63;;
73508;SDS011;61750;55.036;73.312;2022-11-12T09:07:36;83.68;;;25.90;;
73508;SDS011;61750;55.036;73.312;2022-11-12T09:10:25;101.65;;;27.98;;
73508;SDS011;61750;55.036;73.312;2022-11-12T09:13:10;103.13;;;27.73;;
73508;SDS011;61750;55.036;73.312;2022-11-12T09:18:57;53.22;;;16.55;;
73508;SDS011;61750;55.036;73.312;2022-11-12T09:21:48;50.72;;;16.58;;
73508;SDS011;61750;55.036;73.312;2022-11-12T09:29:13;69.18;;;23.40;;
73508;SDS011;61750;55.036;73.312;2022-11-12T09:31:58;68.35;;;23.73;;
73508;SDS011;61750;55.036;73.312;2022-11-12T09:39:08;76.50;;;29.50;;
73508;SDS011;61750;55.036;73.312;2022-11-12T09:42:06;68.53;;;24.75;;
73508;SDS011;61750;55.036;73.312;2022-11-12T09:44:57;71.18;;;26.23;;
73508;SDS011;61750;55.036;73.312;2022-11-12T09:47:48;67.78;;;25.10;;
73508;SDS011;61750;55.036;73.312;2022-11-12T09:50:53;63.23;;;27.94;;
73508;SDS011;61750;55.036;73.312;2022-11-12T09:53:46;52.58;;;18.98;;
73508;SDS011;61750;55.036;73.312;2022-11-12T09:56:40;50.42;;;19.23;;
73508;SDS011;61750;55.036;73.312;2022-11-12T09:59:26;48.47;;;19.50;;
73508;SDS011;61750;55.036;73.312;2022-11-12T10:10:15;42.58;;;17.05;;
73508;SDS011;61750;55.036;73.312;2022-11-12T10:22:57;48.72;;;18.95;;
73508;SDS011;61750;55.036;73.312;2022-11-12T10:26:17;51.92;;;22.10;;
73508;SDS011;61750;55.036;73.312;2022-11-12T10:31:54;78.63;;;31.45;;
73508;SDS011;61750;55.036;73.312;2022-11-12T10:39:00;51.67;;;21.80;;
73508;SDS011;61750;55.036;73.312;2022-11-12T10:41:44;57.38;;;23.25;;
73508;SDS011;61750;55.036;73.312;2022-11-12T10:49:10;61.53;;;26.77;;
73508;SDS011;61750;55.036;73.312;2022-11-12T10:52:06;58.03;;;26.23;;
73508;SDS011;61750;55.036;73.312;2022-11-12T10:59:16;49.95;;;18.50;;
73508;SDS011;61750;55.036;73.312;2022-11-12T11:02:02;34.60;;;17.13;;
73508;SDS011;61750;55.036;73.312;2022-11-12T11:09:25;41.22;;;15.00;;
73508;SDS011;61750;55.036;73.312;2022-11-12T11:12:23;39.03;;;15.73;;
73508;SDS011;61750;55.036;73.312;2022-11-12T11:19:37;36.90;;;15.10;;
73508;SDS011;61750;55.036;73.312;2022-11-12T11:22:34;54.70;;;21.58;;
73508;SDS011;61750;55.036;73.312;2022-11-12T11:29:34;32.55;;;15.60;;
73508;SDS011;61750;55.036;73.312;2022-11-12T11:32:38;42.35;;;18.33;;
73508;SDS011;61750;55.036;73.312;2022-11-12T11:39:13;28.88;;;13.00;;
73508;SDS011;61750;55.036;73.312;2022-11-12T11:57:14;26.42;;;12.40;;
73508;SDS011;61750;55.036;73.312;2022-11-12T12:26:26;19.17;;;10.68;;
73508;SDS011;61750;55.036;73.312;2022-11-12T12:32:13;23.10;;;12.02;;
73508;SDS011;61750;55.036;73.312;2022-11-12T12:43:12;29.35;;;14.05;;
73508;SDS011;61750;55.036;73.312;2022-11-12T12:48:58;31.63;;;13.88;;
73508;SDS011;61750;55.036;73.312;2022-11-12T12:51:46;27.10;;;12.85;;
73508;SDS011;61750;55.036;73.312;2022-11-12T12:57:27;28.10;;;15.75;;
73508;SDS011;61750;55.036;73.312;2022-11-12T13:04:01;13.30;;;6.78;;
73508;SDS011;61750;55.036;73.312;2022-11-12T13:12:01;45.55;;;20.60;;
73508;SDS011;61750;55.036;73.312;2022-11-12T13:19:27;13.27;;;6.27;;
73508;SDS011;61750;55.036;73.312;2022-11-12T13:39:33;9.50;;;5.70;;
73508;SDS011;61750;55.036;73.312;2022-11-12T13:42:19;9.77;;;6.10;;
73508;SDS011;61750;55.036;73.312;2022-11-12T13:49:57;11.20;;;6.00;;
73508;SDS011;61750;55.036;73.312;2022-11-12T13:52:44;12.80;;;5.80;;
73508;SDS011;61750;55.036;73.312;2022-11-12T14:03:13;12.35;;;7.55;;
73508;SDS011;61750;55.036;73.312;2022-11-12T14:09:31;14.77;;;6.45;;
73508;SDS011;61750;55.036;73.312;2022-11-12T14:22:32;18.50;;;9.60;;
73508;SDS011;61750;55.036;73.312;2022-11-12T14:33:07;20.17;;;8.85;;
73508;SDS011;61750;55.036;73.312;2022-11-12T14:38:58;24.58;;;10.73;;
73508;SDS011;61750;55.036;73.312;2022-11-12T14:41:43;27.02;;;12.55;;
73508;SDS011;61750;55.036;73.312;2022-11-12T14:44:33;24.67;;;10.70;;
73508;SDS011;61750;55.036;73.312;2022-11-12T14:47:20;29.63;;;12.82;;
73508;SDS011;61750;55.036;73.312;2022-11-12T14:50:07;25.33;;;11.73;;
73508;SDS011;61750;55.036;73.312;2022-11-12T14:53:42;29.08;;;12.30;;
73508;SDS011;61750;55.036;73.312;2022-11-12T14:56:32;22.85;;;11.25;;
73508;SDS011;61750;55.036;73.312;2022-11-12T14:59:23;26.70;;;10.40;;
73508;SDS011;61750;55.036;73.312;2022-11-12T15:02:19;15.23;;;6.72;;
73508;SDS011;61750;55.036;73.312;2022-11-12T15:09:31;18.13;;;9.05;;
73508;SDS011;61750;55.036;73.312;2022-11-12T15:12:24;17.98;;;8.48;;
73508;SDS011;61750;55.036;73.312;2022-11-12T15:20:13;7.93;;;4.00;;
73508;SDS011;61750;55.036;73.312;2022-11-12T15:23:00;11.07;;;6.05;;
73508;SDS011;61750;55.036;73.312;2022-11-12T15:26:14;11.25;;;5.10;;
73508;SDS011;61750;55.036;73.312;2022-11-12T15:39:41;7.30;;;4.15;;
73508;SDS011;61750;55.036;73.312;2022-11-12T15:42:35;11.07;;;5.60;;
73508;SDS011;61750;55.036;73.312;2022-11-12T15:49:45;8.27;;;4.65;;
73508;SDS011;61750;55.036;73.312;2022-11-12T15:52:37;10.60;;;6.43;;
73508;SDS011;61750;55.036;73.312;2022-11-12T16:00:14;12.98;;;7.28;;
73508;SDS011;61750;55.036;73.312;2022-11-12T16:03:11;9.30;;;5.35;;
73508;SDS011;61750;55.036;73.312;2022-11-12T16:08:57;12.40;;;6.45;;
73508;SDS011;61750;55.036;73.312;2022-11-12T16:11:47;15.55;;;6.60;;
73508;SDS011;61750;55.036;73.312;2022-11-12T16:14:33;8.82;;;5.32;;
73508;SDS011;61750;55.036;73.312;2022-11-12T16:17:18;10.30;;;5.87;;
73508;SDS011;61750;55.036;73.312;2022-11-12T16:20:17;10.65;;;6.10;;
73508;SDS011;61750;55.036;73.312;2022-11-12T16:23:06;10.77;;;6.70;;
73508;SDS011;61750;55.036;73.312;2022-11-12T16:30:16;9.23;;;5.07;;
73508;SDS011;61750;55.036;73.312;2022-11-12T16:33:10;11.07;;;5.50;;
73508;SDS011;61750;55.036;73.312;2022-11-12T16:39:09;8.68;;;5.43;;
73508;SDS011;61750;55.036;73.312;2022-11-12T16:41:56;11.63;;;5.35;;
73508;SDS011;61750;55.036;73.312;2022-11-12T16:49:13;7.47;;;4.72;;
73508;SDS011;61750;55.036;73.312;2022-11-12T16:52:08;12.30;;;5.05;;
73508;SDS011;61750;55.036;73.312;2022-11-12T16:59:33;10.18;;;5.10;;
73508;SDS011;61750;55.036;73.312;2022-11-12T17:02:23;9.85;;;5.20;;
73508;SDS011;61750;55.036;73.312;2022-11-12T17:05:13;7.65;;;4.43;;
73508;SDS011;61750;55.036;73.312;2022-11-12T17:08:05;7.37;;;4.57;;
73508;SDS011;61750;55.036;73.312;2022-11-12T17:11:13;4.90;;;2.45;;
73508;SDS011;61750;55.036;73.312;2022-11-12T17:14:08;17.67;;;6.97;;
73508;SDS011;61750;55.036;73.312;2022-11-12T17:16:54;14.15;;;6.57;;
73508;SDS011;61750;55.036;73.312;2022-11-12T17:19:38;13.43;;;6.97;;
73508;SDS011;61750;55.036;73.312;2022-11-12T17:22:23;13.05;;;7.03;;
73508;SDS011;61750;55.036;73.312;2022-11-12T17:29:50;13.60;;;7.43;;
73508;SDS011;61750;55.036;73.312;2022-11-12T17:32:39;18.50;;;9.88;;
73508;SDS011;61750;55.036;73.312;2022-11-12T17:40:07;9.80;;;5.60;;
73508;SDS011;61750;55.036;73.312;2022-11-12T17:43:02;13.85;;;7.38;;
73508;SDS011;61750;55.036;73.312;2022-11-12T17:46:13;17.42;;;9.30;;
73508;SDS011;61750;55.036;73.312;2022-11-12T17:48:58;13.55;;;7.63;;
73508;SDS011;61750;55.036;73.312;2022-11-12T17:51:42;15.40;;;7.60;;
73508;SDS011;61750;55.036;73.312;2022-11-12T17:58:49;11.52;;;5.88;;
73508;SDS011;61750;55.036;73.312;2022-11-12T18:01:44;15.07;;;7.50;;
73508;SDS011;61750;55.036;73.312;2022-11-12T18:09:17;13.02;;;6.28;;
73508;SDS011;61750;55.036;73.312;2022-11-12T18:12:02;14.90;;;7.55;;
73508;SDS011;61750;55.036;73.312;2022-11-12T18:19:35;15.43;;;7.15;;
73508;SDS011;61750;55.036;73.312;2022-11-12T18:22:30;14.73;;;7.72;;
73508;SDS011;61750;55.036;73.312;2022-11-12T18:29:57;12.63;;;6.78;;
73508;SDS011;61750;55.036;73.312;2022-11-12T18:32:42;10.60;;;5.03;;
73508;SDS011;61750;55.036;73.312;2022-11-12T18:40:07;15.07;;;7.70;;
73508;SDS011;61750;55.036;73.312;2022-11-12T18:42:52;17.73;;;9.52;;
73508;SDS011;61750;55.036;73.312;2022-11-12T18:50:07;22.50;;;9.38;;
73508;SDS011;61750;55.036;73.312;2022-11-12T18:52:53;21.33;;;10.90;;
73508;SDS011;61750;55.036;73.312;2022-11-12T18:59:58;20.02;;;9.98;;
73508;SDS011;61750;55.036;73.312;2022-11-12T19:02:42;18.58;;;10.35;;
73508;SDS011;61750;55.036;73.312;2022-11-12T19:10:08;19.13;;;10.02;;
73508;SDS011;61750;55.036;73.312;2022-11-12T19:12:52;14.45;;;7.70;;
73508;SDS011;61750;55.036;73.312;2022-11-12T19:19:59;14.77;;;7.97;;
73508;SDS011;61750;55.036;73.312;2022-11-12T19:22:43;15.27;;;8.43;;
73508;SDS011;61750;55.036;73.312;2022-11-12T19:30:10;13.82;;;7.55;;
73508;SDS011;61750;55.036;73.312;2022-11-12T19:32:55;17.13;;;8.05;;
73508;SDS011;61750;55.036;73.312;2022-11-12T19:40:05;15.05;;;8.25;;
73508;SDS011;61750;55.036;73.312;2022-11-12T19:42:55;17.85;;;8.13;;
73508;SDS011;61750;55.036;73.312;2022-11-12T19:50:01;16.17;;;8.45;;
73508;SDS011;61750;55.036;73.312;2022-11-12T19:52:45;16.33;;;8.20;;
73508;SDS011;61750;55.036;73.312;2022-11-12T20:00:11;18.95;;;9.45;;
73508;SDS011;61750;55.036;73.312;2022-11-12T20:02:56;19.37;;;10.63;;
73508;SDS011;61750;55.036;73.312;2022-11-12T20:06:17;15.13;;;8.43;;
73508;SDS011;61750;55.036;73.312;2022-11-12T20:09:03;20.85;;;10.20;;
73508;SDS011;61750;55.036;73.312;2022-11-12T20:11:47;17.83;;;9.20;;
73508;SDS011;61750;55.036;73.312;2022-11-12T20:14:33;16.90;;;8.93;;
73508;SDS011;61750;55.036;73.312;2022-11-12T20:17:23;14.23;;;7.05;;
73508;SDS011;61750;55.036;73.312;2022-11-12T20:20:08;14.57;;;8.13;;
73508;SDS011;61750;55.036;73.312;2022-11-12T20:22:55;17.92;;;7.88;;
73508;SDS011;61750;55.036;73.312;2022-11-12T20:26:14;19.23;;;9.77;;
73508;SDS011;61750;55.036;73.312;2022-11-12T20:28:59;16.98;;;8.60;;
73508;SDS011;61750;55.036;73.312;2022-11-12T20:31:44;17.13;;;8.55;;
73508;SDS011;61750;55.036;73.312;2022-11-12T20:38:59;16.85;;;8.52;;
73508;SDS011;61750;55.036;73.312;2022-11-12T20:41:44;14.88;;;7.65;;
73508;SDS011;61750;55.036;73.312;2022-11-12T20:44:29;14.88;;;6.75;;
73508;SDS011;61750;55.036;73.312;2022-11-12T20:47:24;16.83;;;8.20;;
73508;SDS011;61750;55.036;73.312;2022-11-12T20:50:09;17.80;;;8.80;;
73508;SDS011;61750;55.036;73.312;2022-11-12T20:52:53;15.30;;;7.50;;
73508;SDS011;61750;55.036;73.312;2022-11-12T20:59:58;16.95;;;7.30;;
73508;SDS011;61750;55.036;73.312;2022-11-12T21:02:43;13.85;;;7.43;;
73508;SDS011;61750;55.036;73.312;2022-11-12T21:10:13;14.45;;;7.28;;
73508;SDS011;61750;55.036;73.312;2022-11-12T21:13:08;14.50;;;6.85;;
73508;SDS011;61750;55.036;73.312;2022-11-12T21:18:58;12.27;;;5.45;;
73508;SDS011;61750;55.036;73.312;2022-11-12T21:21:44;16.03;;;7.73;;
73508;SDS011;61750;55.036;73.312;2022-11-12T21:24:29;14.90;;;7.60;;
73508;SDS011;61750;55.036;73.312;2022-11-12T21:27:14;16.67;;;7.75;;
73508;SDS011;61750;55.036;73.312;2022-11-12T21:30:03;17.20;;;7.78;;
73508;SDS011;61750;55.036;73.312;2022-11-12T21:32:48;17.42;;;8.52;;
73508;SDS011;61750;55.036;73.312;2022-11-12T21:40:14;18.33;;;8.63;;
73508;SDS011;61750;55.036;73.312;2022-11-12T21:42:59;13.95;;;7.28;;
73508;SDS011;61750;55.036;73.312;2022-11-12T21:50:30;12.98;;;6.65;;
73508;SDS011;61750;55.036;73.312;2022-11-12T21:53:16;16.42;;;7.85;;
73508;SDS011;61750;55.036;73.312;2022-11-12T21:58:59;17.63;;;8.00;;
73508;SDS011;61750;55.036;73.312;2022-11-12T22:01:44;15.88;;;8.20;;
73508;SDS011;61750;55.036;73.312;2022-11-12T22:04:28;17.33;;;8.50;;
73508;SDS011;61750;55.036;73.312;2022-11-12T22:07:13;17.00;;;7.60;;
73508;SDS011;61750;55.036;73.312;2022-11-12T22:09:58;16.85;;;8.23;;
73508;SDS011;61750;55.036;73.312;2022-11-12T22:12:47;16.52;;;8.18;;
73508;SDS011;61750;55.036;73.312;2022-11-12T22:20:14;18.45;;;7.68;;
73508;SDS011;61750;55.036;73.312;2022-11-12T22:22:59;15.25;;;7.40;;
73508;SDS011;61750;55.036;73.312;2022-11-12T22:30:26;17.80;;;8.82;;
73508;SDS011;61750;55.036;73.312;2022-11-12T22:33:11;24.95;;;9.27;;
73508;SDS011;61750;55.036;73.312;2022-11-12T22:38:59;17.65;;;8.68;;
73508;SDS011;61750;55.036;73.312;2022-11-12T22:41:46;19.30;;;8.63;;
73508;SDS011;61750;55.036;73.312;2022-11-12T22:44:30;19.88;;;9.70;;
73508;SDS011;61750;55.036;73.312;2022-11-12T22:47:15;19.70;;;8.90;;
73508;SDS011;61750;55.036;73.312;2022-11-12T22:50:04;19.50;;;9.48;;
73508;SDS011;61750;55.036;73.312;2022-11-12T22:53:00;20.55;;;9.55;;
73508;SDS011;61750;55.036;73.312;2022-11-12T23:01:20;20.45;;;9.44;;
73508;SDS011;61750;55.036;73.312;2022-11-12T23:04:07;22.00;;;9.35;;
73508;SDS011;61750;55.036;73.312;2022-11-12T23:06:51;20.13;;;9.18;;
73508;SDS011;61750;55.036;73.312;2022-11-12T23:09:36;19.38;;;8.70;;
73508;SDS011;61750;55.036;73.312;2022-11-12T23:12:21;21.02;;;10.07;;
73508;SDS011;61750;55.036;73.312;2022-11-12T23:19:28;22.73;;;9.50;;
73508;SDS011;61750;55.036;73.312;2022-11-12T23:22:23;19.98;;;8.13;;
73508;SDS011;61750;55.036;73.312;2022-11-12T23:29:48;18.40;;;8.70;;
73508;SDS011;61750;55.036;73.312;2022-11-12T23:32:32;21.35;;;10.30;;
73508;SDS011;61750;55.036;73.312;2022-11-12T23:39:59;20.23;;;8.60;;
73508;SDS011;61750;55.036;73.312;2022-11-12T23:42:43;19.35;;;9.15;;
73508;SDS011;61750;55.036;73.312;2022-11-12T23:49:49;18.48;;;8.45;;
73508;SDS011;61750;55.036;73.312;2022-11-12T23:52:33;16.80;;;7.93;;
73508;SDS011;61750;55.036;73.312;2022-11-12T23:59:59;15.00;;;7.65;;
